createdAt,value
2023-01-31T00:01:37.553Z,90.40
2023-01-31T00:04:09.924Z,90.24
2023-01-31T00:06:40.289Z,90.30
2023-01-31T00:09:08.717Z,90.36
2023-01-31T00:11:38.561Z,90.43
2023-01-31T00:14:10.844Z,90.57
2023-01-31T00:16:41.912Z,90.56
2023-01-31T00:19:08.622Z,90.61
2023-01-31T00:21:35.291Z,90.51
2023-01-31T00:24:02.422Z,90.45
2023-01-31T00:26:34.077Z,90.63
2023-01-31T00:29:05.377Z,90.54
2023-01-31T00:31:34.912Z,90.59
2023-01-31T00:34:02.508Z,90.28
2023-01-31T00:36:37.660Z,90.41
2023-01-31T00:39:06.530Z,90.44
2023-01-31T00:41:34.636Z,90.34
2023-01-31T00:44:05.436Z,90.44
2023-01-31T00:46:36.811Z,90.35
2023-01-31T00:49:04.309Z,90.46
2023-01-31T00:51:31.209Z,90.41
2023-01-31T00:53:58.103Z,90.33
2023-01-31T00:56:27.580Z,90.21
2023-01-31T00:58:55.796Z,90.23
2023-01-31T01:01:27.898Z,90.36
2023-01-31T01:03:57.368Z,90.36
2023-01-31T01:06:25.199Z,90.29
2023-01-31T01:08:52.107Z,90.43
2023-01-31T01:11:33.305Z,90.53
2023-01-31T01:14:03.429Z,90.43
2023-01-31T01:16:36.814Z,90.42
2023-01-31T01:19:12.951Z,90.38
2023-01-31T01:21:41.121Z,90.16
2023-01-31T01:24:19.229Z,90.38
2023-01-31T01:26:46.636Z,90.19
2023-01-31T01:29:13.833Z,90.26
2023-01-31T01:31:42.786Z,90.40
2023-01-31T01:34:17.396Z,90.37
2023-01-31T01:36:47.536Z,89.99
2023-01-31T01:39:14.542Z,90.21
2023-01-31T01:41:41.342Z,90.22
2023-01-31T01:44:44.696Z,90.09
2023-01-31T01:47:17.092Z,89.92
2023-01-31T01:49:46.675Z,90.02
2023-01-31T01:52:15.880Z,89.91
2023-01-31T01:54:51.120Z,89.93
2023-01-31T01:57:24.204Z,89.96
2023-01-31T02:00:00.217Z,90.08
2023-01-31T02:02:27.316Z,90.02
2023-01-31T02:04:54.391Z,90.03
2023-01-31T02:07:21.216Z,89.94
2023-01-31T02:09:57.338Z,89.92
2023-01-31T02:12:25.253Z,90.13
2023-01-31T02:14:53.231Z,90.09
2023-01-31T02:17:20.660Z,90.17
2023-01-31T02:19:56.194Z,90.00
2023-01-31T02:22:22.743Z,90.09
2023-01-31T02:25:08.119Z,90.06
2023-01-31T02:28:00.995Z,90.09
2023-01-31T02:30:50.316Z,90.15
2023-01-31T02:33:36.966Z,90.05
2023-01-31T02:36:09.729Z,89.95
2023-01-31T02:38:49.902Z,89.99
2023-01-31T02:41:41.583Z,89.99
2023-01-31T02:44:55.570Z,89.97
2023-01-31T02:47:24.871Z,89.98
2023-01-31T02:49:58.412Z,89.97
2023-01-31T02:52:43.662Z,90.11
2023-01-31T02:55:44.408Z,90.24
2023-01-31T02:58:14.460Z,90.19
2023-01-31T03:00:46.373Z,90.27
2023-01-31T03:03:25.930Z,90.51
2023-01-31T03:06:33.426Z,90.32
2023-01-31T03:09:25.030Z,90.56
2023-01-31T03:12:19.669Z,90.35
2023-01-31T03:14:59.097Z,90.37
2023-01-31T03:17:53.777Z,90.39
2023-01-31T03:20:44.598Z,90.22
2023-01-31T03:23:16.399Z,90.58
2023-01-31T03:25:45.329Z,90.64
2023-01-31T03:28:19.899Z,90.56
2023-01-31T03:31:08.194Z,90.71
2023-01-31T03:33:57.312Z,90.91
2023-01-31T03:36:59.981Z,91.15
2023-01-31T03:39:40.200Z,90.86
2023-01-31T03:42:09.466Z,90.87
2023-01-31T03:44:36.180Z,91.02
2023-01-31T03:47:14.646Z,91.13
2023-01-31T03:49:44.353Z,91.28
2023-01-31T03:52:19.317Z,91.26
2023-01-31T03:54:54.043Z,91.42
2023-01-31T03:57:34.367Z,91.51
2023-01-31T04:00:03.603Z,91.46
2023-01-31T04:02:38.745Z,91.67
2023-01-31T04:05:17.214Z,91.62
2023-01-31T04:07:46.775Z,91.85
2023-01-31T04:10:19.506Z,91.75
2023-01-31T04:12:48.563Z,91.64
2023-01-31T04:15:16.048Z,91.57
2023-01-31T04:17:42.657Z,91.69
2023-01-31T04:20:14.557Z,91.83
2023-01-31T04:22:41.184Z,91.68
2023-01-31T04:25:08.250Z,91.85
2023-01-31T04:27:34.836Z,91.73
2023-01-31T04:30:05.086Z,91.80
2023-01-31T04:32:32.207Z,91.88
2023-01-31T04:35:01.372Z,92.00
2023-01-31T04:37:28.970Z,92.03
2023-01-31T04:39:56.893Z,92.08
2023-01-31T04:42:23.675Z,91.99
2023-01-31T04:44:50.984Z,92.09
2023-01-31T04:47:17.572Z,91.88
2023-01-31T04:49:44.587Z,91.99
2023-01-31T04:52:12.015Z,91.89
2023-01-31T04:54:42.259Z,92.17
2023-01-31T04:57:11.523Z,92.10
2023-01-31T04:59:38.108Z,92.05
2023-01-31T05:02:04.990Z,92.22
2023-01-31T05:04:31.603Z,92.06
2023-01-31T05:06:58.434Z,92.26
2023-01-31T05:09:25.160Z,92.28
2023-01-31T05:11:52.049Z,92.23
2023-01-31T05:14:21.031Z,92.40
2023-01-31T05:17:05.968Z,92.65
2023-01-31T05:19:32.903Z,92.42
2023-01-31T05:22:02.099Z,92.43
2023-01-31T05:24:31.620Z,92.61
2023-01-31T05:27:01.792Z,92.57
2023-01-31T05:29:32.431Z,92.68
2023-01-31T05:32:01.570Z,92.60
2023-01-31T05:34:32.888Z,92.57
2023-01-31T05:37:00.116Z,92.51
2023-01-31T05:39:30.004Z,92.78
2023-01-31T05:41:59.219Z,92.64
2023-01-31T05:44:28.293Z,92.63
2023-01-31T05:46:59.216Z,92.75
2023-01-31T05:49:25.741Z,92.67
2023-01-31T05:51:52.283Z,92.65
2023-01-31T05:54:19.096Z,92.78
2023-01-31T05:56:45.680Z,92.84
2023-01-31T05:59:12.605Z,92.55
2023-01-31T06:01:39.239Z,93.03
2023-01-31T06:04:05.846Z,93.08
2023-01-31T06:06:32.331Z,92.77
2023-01-31T06:09:01.644Z,92.83
2023-01-31T06:11:28.205Z,92.92
2023-01-31T06:13:58.571Z,93.20
2023-01-31T06:16:25.345Z,93.01
2023-01-31T06:18:54.701Z,92.98
2023-01-31T06:21:21.261Z,93.04
2023-01-31T06:23:48.065Z,92.98
2023-01-31T06:26:15.269Z,92.98
2023-01-31T06:28:41.800Z,92.94
2023-01-31T06:31:10.532Z,93.09
2023-01-31T06:33:46.263Z,93.19
2023-01-31T06:36:17.336Z,93.27
2023-01-31T06:38:45.370Z,93.22
2023-01-31T06:41:13.111Z,93.54
2023-01-31T06:43:40.132Z,93.29
2023-01-31T06:46:07.047Z,93.27
2023-01-31T06:48:36.673Z,93.29
2023-01-31T06:51:03.353Z,93.25
2023-01-31T06:53:32.828Z,93.12
2023-01-31T06:56:06.158Z,93.18
2023-01-31T06:58:33.830Z,93.09
2023-01-31T07:01:10.406Z,93.03
2023-01-31T07:03:38.194Z,92.92
2023-01-31T07:06:05.996Z,93.05
2023-01-31T07:08:35.321Z,92.96
2023-01-31T07:11:08.024Z,93.05
2023-01-31T07:13:34.946Z,92.51
2023-01-31T07:16:03.022Z,92.86
2023-01-31T07:18:32.526Z,92.88
2023-01-31T07:20:59.029Z,92.79
2023-01-31T07:23:25.936Z,92.68
2023-01-31T07:25:52.763Z,92.73
2023-01-31T07:28:21.169Z,92.71
2023-01-31T07:30:48.619Z,92.76
2023-01-31T07:33:17.558Z,92.65
2023-01-31T07:35:44.230Z,92.48
2023-01-31T07:38:11.549Z,92.46
2023-01-31T07:40:40.432Z,92.41
2023-01-31T07:43:07.318Z,92.45
2023-01-31T07:45:37.548Z,92.46
2023-01-31T07:48:06.639Z,92.38
2023-01-31T07:50:33.337Z,92.36
2023-01-31T07:53:00.224Z,92.39
2023-01-31T07:55:27.222Z,92.36
2023-01-31T07:57:53.978Z,92.37
2023-01-31T08:00:40.018Z,92.08
2023-01-31T08:03:26.125Z,92.17
2023-01-31T08:05:53.423Z,92.32
2023-01-31T08:08:22.927Z,92.25
2023-01-31T08:10:49.562Z,92.28
2023-01-31T08:13:16.828Z,92.28
2023-01-31T08:15:43.688Z,92.22
2023-01-31T08:18:10.215Z,92.34
2023-01-31T08:20:37.831Z,91.86
2023-01-31T08:23:04.499Z,92.35
2023-01-31T08:25:32.029Z,92.18
2023-01-31T08:27:59.337Z,92.28
2023-01-31T08:30:26.242Z,91.95
2023-01-31T08:32:53.128Z,92.13
2023-01-31T08:35:20.386Z,92.10
2023-01-31T08:37:49.453Z,92.15
2023-01-31T08:40:16.374Z,92.04
2023-01-31T08:42:43.267Z,91.79
2023-01-31T08:45:12.983Z,91.88
2023-01-31T08:47:42.002Z,91.94
2023-01-31T08:50:25.793Z,91.86
2023-01-31T08:52:56.000Z,91.64
2023-01-31T08:55:24.088Z,91.54
2023-01-31T08:57:59.383Z,91.42
2023-01-31T09:00:29.045Z,91.25
2023-01-31T09:02:58.189Z,91.45
2023-01-31T09:05:30.093Z,91.22
2023-01-31T09:07:57.612Z,91.09
2023-01-31T09:10:25.009Z,91.24
2023-01-31T09:12:51.974Z,91.25
2023-01-31T09:15:19.537Z,90.84
2023-01-31T09:17:47.887Z,90.95
2023-01-31T09:20:15.907Z,90.96
2023-01-31T09:22:44.604Z,90.95
2023-01-31T09:25:11.774Z,90.89
2023-01-31T09:27:41.167Z,90.76
2023-01-31T09:30:10.050Z,90.77
2023-01-31T09:32:39.105Z,90.75
2023-01-31T09:35:08.674Z,90.67
2023-01-31T09:37:35.581Z,90.60
2023-01-31T09:40:04.700Z,90.61
2023-01-31T09:42:37.383Z,90.58
2023-01-31T09:45:15.204Z,90.38
2023-01-31T09:47:51.548Z,90.55
2023-01-31T09:50:33.988Z,90.23
2023-01-31T09:53:04.088Z,90.60
2023-01-31T09:55:34.521Z,90.37
2023-01-31T09:58:30.862Z,90.33
2023-01-31T10:01:15.678Z,90.25
2023-01-31T10:04:04.975Z,90.32
2023-01-31T10:06:57.425Z,90.11
2023-01-31T10:09:33.902Z,90.27
2023-01-31T10:12:07.522Z,90.31
2023-01-31T10:14:41.645Z,90.11
2023-01-31T10:17:23.553Z,90.44
2023-01-31T10:20:32.816Z,90.10
2023-01-31T10:23:11.831Z,90.27
2023-01-31T10:26:08.351Z,90.24
2023-01-31T10:28:58.845Z,90.04
2023-01-31T10:31:58.645Z,89.97
2023-01-31T10:34:28.172Z,89.98
2023-01-31T10:37:10.167Z,89.95
2023-01-31T10:39:44.909Z,89.99
2023-01-31T10:42:20.215Z,89.85
2023-01-31T10:44:50.536Z,89.96
2023-01-31T10:47:18.922Z,89.86
2023-01-31T10:49:47.445Z,89.66
2023-01-31T10:52:32.181Z,89.51
2023-01-31T10:55:07.623Z,89.23
2023-01-31T10:57:34.601Z,89.30
2023-01-31T11:00:01.526Z,89.62
2023-01-31T11:03:01.420Z,89.64
2023-01-31T11:05:31.007Z,89.62
2023-01-31T11:08:03.863Z,89.95
2023-01-31T11:10:50.417Z,90.23
2023-01-31T11:13:19.374Z,90.39
2023-01-31T11:15:48.325Z,90.69
2023-01-31T11:18:25.799Z,91.01
2023-01-31T11:20:52.859Z,91.10
2023-01-31T11:23:25.472Z,91.00
2023-01-31T11:25:57.219Z,91.57
2023-01-31T11:28:33.427Z,91.49
2023-01-31T11:31:01.615Z,91.76
2023-01-31T11:33:57.768Z,92.39
2023-01-31T11:36:24.776Z,92.46
2023-01-31T11:38:52.041Z,92.53
2023-01-31T11:41:40.029Z,92.86
2023-01-31T11:44:18.135Z,93.01
2023-01-31T11:46:52.845Z,93.15
2023-01-31T11:49:41.043Z,93.19
2023-01-31T11:52:14.365Z,93.21
2023-01-31T11:54:46.171Z,93.23
2023-01-31T11:57:23.806Z,93.41
2023-01-31T11:59:53.747Z,93.45
2023-01-31T12:02:41.688Z,93.56
2023-01-31T12:05:12.144Z,93.56
2023-01-31T12:07:50.919Z,93.89
2023-01-31T12:10:35.300Z,94.05
2023-01-31T12:13:18.469Z,94.07
2023-01-31T12:15:50.461Z,94.05
2023-01-31T12:18:28.684Z,94.45
2023-01-31T12:21:15.308Z,94.29
2023-01-31T12:23:57.206Z,94.28
2023-01-31T12:26:55.341Z,94.45
2023-01-31T12:29:36.776Z,94.46
2023-01-31T12:32:21.063Z,94.61
2023-01-31T12:35:07.571Z,94.58
2023-01-31T12:37:54.294Z,94.48
2023-01-31T12:40:30.859Z,94.41
2023-01-31T12:43:05.757Z,94.49
2023-01-31T12:45:46.629Z,94.29
2023-01-31T12:48:48.540Z,94.40
2023-01-31T12:51:28.786Z,94.22
2023-01-31T12:54:32.625Z,94.18
2023-01-31T12:57:46.591Z,93.86
2023-01-31T13:00:32.961Z,93.89
2023-01-31T13:03:18.583Z,93.59
2023-01-31T13:06:00.220Z,93.43
2023-01-31T13:08:32.974Z,93.14
2023-01-31T13:11:08.985Z,93.01
2023-01-31T13:13:57.624Z,92.69
2023-01-31T13:16:34.513Z,92.42
2023-01-31T13:19:06.608Z,92.03
2023-01-31T13:21:44.039Z,91.99
2023-01-31T13:24:15.065Z,91.70
2023-01-31T13:26:48.821Z,91.57
2023-01-31T13:29:29.024Z,91.25
2023-01-31T13:32:19.863Z,91.04
2023-01-31T13:34:52.113Z,91.18
2023-01-31T13:37:24.198Z,91.07
2023-01-31T13:39:57.669Z,90.84
2023-01-31T13:42:28.795Z,90.36
2023-01-31T13:44:56.752Z,89.92
2023-01-31T13:47:40.552Z,89.67
2023-01-31T13:50:42.402Z,89.12
2023-01-31T13:53:19.788Z,88.99
2023-01-31T13:55:49.036Z,88.69
2023-01-31T13:58:22.574Z,88.71
2023-01-31T14:01:02.096Z,88.60
2023-01-31T14:03:31.301Z,88.33
2023-01-31T14:06:03.739Z,87.88
2023-01-31T14:08:57.067Z,88.04
2023-01-31T14:11:25.666Z,87.80
2023-01-31T14:14:29.035Z,87.68
2023-01-31T14:16:55.672Z,87.15
2023-01-31T14:19:22.417Z,86.74
2023-01-31T14:22:13.907Z,86.45
2023-01-31T14:24:47.600Z,85.59
2023-01-31T14:27:23.226Z,85.43
2023-01-31T14:30:19.532Z,85.33
2023-01-31T14:33:11.313Z,85.21
2023-01-31T14:36:06.287Z,84.31
2023-01-31T14:39:10.350Z,83.96
2023-01-31T14:41:55.527Z,83.61
2023-01-31T14:44:55.628Z,83.36
2023-01-31T14:47:32.347Z,83.77
2023-01-31T14:50:37.109Z,83.58
2023-01-31T14:53:16.486Z,83.58
2023-01-31T14:55:57.397Z,83.62
2023-01-31T14:58:32.692Z,83.22
2023-01-31T15:01:05.304Z,83.26
2023-01-31T15:03:41.428Z,83.15
2023-01-31T15:06:16.476Z,83.34
2023-01-31T15:08:51.489Z,83.29
2023-01-31T15:11:42.301Z,83.35
2023-01-31T15:14:36.074Z,83.16
2023-01-31T15:17:33.815Z,82.97
2023-01-31T15:20:17.580Z,82.71
2023-01-31T15:22:45.518Z,82.71
2023-01-31T15:25:44.935Z,82.63
2023-01-31T15:28:18.648Z,82.51
2023-01-31T15:30:46.290Z,82.79
2023-01-31T15:33:23.945Z,82.52
2023-01-31T15:36:02.192Z,82.60
2023-01-31T15:38:35.303Z,82.88
2023-01-31T15:41:21.251Z,82.88
2023-01-31T15:43:50.901Z,83.00
2023-01-31T15:46:32.239Z,82.32
2023-01-31T15:49:01.611Z,82.57
2023-01-31T15:51:29.165Z,82.37
2023-01-31T15:54:06.935Z,82.22
2023-01-31T15:56:40.776Z,81.84
2023-01-31T15:59:13.899Z,82.06
2023-01-31T16:01:48.090Z,81.83
2023-01-31T16:04:17.218Z,82.12
2023-01-31T16:06:46.533Z,82.36
2023-01-31T16:09:33.100Z,81.89
2023-01-31T16:12:01.899Z,81.73
2023-01-31T16:14:31.660Z,81.77
2023-01-31T16:16:59.219Z,81.71
2023-01-31T16:19:30.012Z,81.71
2023-01-31T16:21:58.787Z,81.67
2023-01-31T16:24:30.189Z,81.65
2023-01-31T16:27:11.882Z,81.76
2023-01-31T16:29:51.677Z,81.88
2023-01-31T16:32:34.428Z,81.86
2023-01-31T16:35:04.727Z,82.18
2023-01-31T16:37:34.719Z,82.33
2023-01-31T16:40:23.907Z,82.61
2023-01-31T16:42:52.169Z,82.69
2023-01-31T16:45:31.030Z,82.71
2023-01-31T16:48:28.715Z,82.90
2023-01-31T16:50:59.509Z,82.65
2023-01-31T16:53:33.628Z,82.27
2023-01-31T16:56:15.258Z,81.77
2023-01-31T16:58:50.928Z,81.67
2023-01-31T17:01:32.322Z,81.68
2023-01-31T17:04:22.677Z,81.64
2023-01-31T17:07:01.061Z,81.70
2023-01-31T17:09:29.445Z,81.33
2023-01-31T17:11:56.490Z,80.99
2023-01-31T17:14:23.996Z,80.71
2023-01-31T17:16:54.497Z,80.64
2023-01-31T17:19:21.124Z,80.76
2023-01-31T17:21:50.092Z,80.41
2023-01-31T17:24:23.762Z,79.71
2023-01-31T17:26:54.072Z,79.88
2023-01-31T17:29:21.396Z,79.70
2023-01-31T17:31:51.143Z,79.78
2023-01-31T17:34:18.246Z,79.59
2023-01-31T17:36:45.549Z,79.59
2023-01-31T17:39:12.251Z,79.30
2023-01-31T17:41:41.497Z,79.14
2023-01-31T17:44:13.226Z,79.09
2023-01-31T17:46:40.106Z,78.75
2023-01-31T17:49:08.317Z,78.92
2023-01-31T17:51:37.574Z,78.80
2023-01-31T17:54:04.740Z,79.10
2023-01-31T17:56:31.650Z,79.10
2023-01-31T17:59:00.553Z,79.32
2023-01-31T18:01:27.415Z,79.35
2023-01-31T18:03:54.481Z,79.42
2023-01-31T18:06:21.070Z,79.22
2023-01-31T18:08:48.766Z,79.04
2023-01-31T18:11:17.791Z,79.59
2023-01-31T18:13:45.587Z,79.62
2023-01-31T18:16:18.170Z,79.38
2023-01-31T18:18:44.950Z,79.62
2023-01-31T18:21:13.447Z,79.80
2023-01-31T18:23:41.479Z,79.61
2023-01-31T18:26:09.285Z,79.84
2023-01-31T18:28:37.607Z,79.90
2023-01-31T18:31:10.811Z,80.00
2023-01-31T18:33:38.365Z,79.76
2023-01-31T18:36:07.323Z,80.25
2023-01-31T18:38:33.839Z,80.17
2023-01-31T18:41:00.429Z,80.37
2023-01-31T18:43:29.668Z,80.17
2023-01-31T18:45:56.660Z,80.15
2023-01-31T18:48:23.310Z,80.38
2023-01-31T18:50:50.042Z,80.41
2023-01-31T18:53:16.809Z,80.43
2023-01-31T18:55:43.664Z,80.64
2023-01-31T18:58:10.290Z,80.25
2023-01-31T19:00:37.246Z,80.94
2023-01-31T19:03:04.008Z,80.70
2023-01-31T19:05:30.656Z,80.65
2023-01-31T19:07:57.591Z,80.72
2023-01-31T19:10:26.879Z,81.39
2023-01-31T19:12:55.529Z,80.84
2023-01-31T19:15:22.393Z,80.93
2023-01-31T19:17:49.455Z,81.08
2023-01-31T19:20:16.263Z,81.16
2023-01-31T19:22:43.080Z,81.13
2023-01-31T19:25:11.363Z,81.28
2023-01-31T19:27:39.970Z,81.53
2023-01-31T19:30:07.395Z,81.42
2023-01-31T19:32:33.893Z,81.57
2023-01-31T19:35:05.696Z,81.69
2023-01-31T19:37:34.529Z,81.62
2023-01-31T19:40:02.041Z,81.65
2023-01-31T19:42:31.496Z,81.61
2023-01-31T19:45:00.491Z,81.65
2023-01-31T19:47:27.279Z,82.00
2023-01-31T19:49:54.109Z,81.79
2023-01-31T19:52:20.884Z,82.08
2023-01-31T19:54:47.433Z,82.01
2023-01-31T19:57:14.161Z,81.72
2023-01-31T19:59:41.545Z,82.04
2023-01-31T20:02:13.622Z,81.52
2023-01-31T20:04:40.729Z,81.41
2023-01-31T20:07:08.851Z,81.22
2023-01-31T20:09:36.495Z,81.44
2023-01-31T20:12:03.362Z,81.24
2023-01-31T20:14:30.068Z,81.54
2023-01-31T20:16:56.881Z,81.34
2023-01-31T20:19:23.467Z,81.10
2023-01-31T20:21:50.477Z,80.96
2023-01-31T20:24:19.611Z,80.96
2023-01-31T20:26:46.302Z,80.83
2023-01-31T20:29:15.409Z,80.51
2023-01-31T20:31:44.547Z,80.29
2023-01-31T20:34:11.392Z,80.10
2023-01-31T20:36:38.387Z,79.78
2023-01-31T20:39:06.736Z,79.71
2023-01-31T20:41:33.165Z,79.92
2023-01-31T20:43:59.662Z,79.87
2023-01-31T20:46:28.976Z,79.66
2023-01-31T20:48:57.432Z,79.64
2023-01-31T20:51:23.856Z,79.44
2023-01-31T20:53:50.463Z,79.46
2023-01-31T20:56:17.425Z,79.12
2023-01-31T20:58:44.755Z,78.85
2023-01-31T21:01:12.172Z,78.26
2023-01-31T21:03:41.561Z,78.41
2023-01-31T21:06:09.137Z,78.44
2023-01-31T21:08:36.270Z,78.00
2023-01-31T21:11:09.806Z,77.75
2023-01-31T21:13:38.311Z,77.79
2023-01-31T21:16:07.075Z,78.05
2023-01-31T21:18:37.311Z,77.78
2023-01-31T21:21:09.441Z,77.59
2023-01-31T21:23:37.810Z,77.49
2023-01-31T21:26:05.368Z,77.94
2023-01-31T21:28:32.429Z,77.79
2023-01-31T21:31:07.921Z,77.72
2023-01-31T21:33:34.747Z,77.54
2023-01-31T21:36:07.540Z,77.60
2023-01-31T21:38:34.479Z,77.72
2023-01-31T21:41:19.989Z,77.86
2023-01-31T21:43:46.873Z,77.90
2023-01-31T21:46:14.909Z,77.85
2023-01-31T21:48:42.417Z,77.90
2023-01-31T21:51:12.651Z,78.20
2023-01-31T21:53:40.146Z,78.24
2023-01-31T21:56:33.980Z,78.48
2023-01-31T21:59:01.158Z,78.64
2023-01-31T22:01:34.066Z,78.82
2023-01-31T22:04:03.936Z,78.85
2023-01-31T22:06:39.174Z,78.66
2023-01-31T22:09:07.985Z,78.93
2023-01-31T22:11:36.606Z,79.29
2023-01-31T22:14:06.755Z,79.09
2023-01-31T22:16:40.192Z,79.55
2023-01-31T22:19:07.688Z,79.56
2023-01-31T22:21:36.361Z,79.95
2023-01-31T22:24:05.987Z,79.89
2023-01-31T22:26:38.897Z,80.08
2023-01-31T22:29:10.979Z,80.54
2023-01-31T22:31:39.199Z,80.88
2023-01-31T22:34:10.090Z,81.27
2023-01-31T22:36:36.690Z,81.58
2023-01-31T22:39:04.582Z,81.78
2023-01-31T22:41:31.774Z,81.96
2023-01-31T22:43:58.824Z,81.87
2023-01-31T22:46:28.291Z,82.15
2023-01-31T22:48:55.301Z,82.24
2023-01-31T22:51:25.097Z,82.42
2023-01-31T22:53:52.076Z,82.63
2023-01-31T22:56:23.832Z,82.65
2023-01-31T22:58:56.355Z,82.72
2023-01-31T23:01:25.267Z,82.58
2023-01-31T23:03:56.251Z,82.78
2023-01-31T23:06:25.127Z,82.40
2023-01-31T23:08:52.253Z,82.58
2023-01-31T23:11:19.876Z,82.61
2023-01-31T23:13:48.552Z,82.78
2023-01-31T23:16:44.319Z,82.83
2023-01-31T23:19:14.390Z,82.63
2023-01-31T23:21:44.791Z,82.79
2023-01-31T23:24:14.690Z,83.00
2023-01-31T23:26:41.842Z,83.11
2023-01-31T23:29:12.723Z,83.04
2023-01-31T23:31:40.052Z,82.90
2023-01-31T23:34:07.791Z,83.01
2023-01-31T23:36:36.795Z,82.92
2023-01-31T23:39:06.650Z,82.89
2023-01-31T23:41:33.357Z,82.87
2023-01-31T23:44:00.219Z,82.69
2023-01-31T23:46:27.227Z,82.44
2023-01-31T23:48:53.931Z,82.34
2023-01-31T23:51:20.709Z,82.33
2023-01-31T23:53:47.795Z,82.13
2023-01-31T23:56:14.305Z,82.15
2023-01-31T23:58:40.895Z,82.16
